sensor_id;sensor_type;location;lat;lon;timestamp;temperature;humidity
15554;DHT22;7878;44.632;10.942;2023-04-01T00:02:07;16.10;78.90
15554;DHT22;7878;44.632;10.942;2023-04-01T00:04:33;16.20;79.20
15554;DHT22;7878;44.632;10.942;2023-04-01T00:06:59;16.20;79.80
15554;DHT22;7878;44.632;10.942;2023-04-01T00:09:25;16.20;79.50
15554;DHT22;7878;44.632;10.942;2023-04-01T00:11:51;16.20;79.00
15554;DHT22;7878;44.632;10.942;2023-04-01T00:14:17;16.20;79.20
15554;DHT22;7878;44.632;10.942;2023-04-01T00:16:42;16.20;79.10
15554;DHT22;7878;44.632;10.942;2023-04-01T00:19:08;16.20;79.10
15554;DHT22;7878;44.632;10.942;2023-04-01T00:21:34;16.20;79.10
15554;DHT22;7878;44.632;10.942;2023-04-01T00:24:02;16.30;79.00
15554;DHT22;7878;44.632;10.942;2023-04-01T00:26:27;16.20;79.10
15554;DHT22;7878;44.632;10.942;2023-04-01T00:28:53;16.20;78.90
15554;DHT22;7878;44.632;10.942;2023-04-01T00:31:19;16.20;79.60
15554;DHT22;7878;44.632;10.942;2023-04-01T00:33:45;16.20;79.60
15554;DHT22;7878;44.632;10.942;2023-04-01T00:36:14;16.20;79.00
15554;DHT22;7878;44.632;10.942;2023-04-01T00:38:41;16.20;79.40
15554;DHT22;7878;44.632;10.942;2023-04-01T00:41:09;16.20;79.50
15554;DHT22;7878;44.632;10.942;2023-04-01T00:43:40;16.20;79.10
15554;DHT22;7878;44.632;10.942;2023-04-01T00:46:06;16.20;79.20
15554;DHT22;7878;44.632;10.942;2023-04-01T00:48:34;16.20;79.10
15554;DHT22;7878;44.632;10.942;2023-04-01T00:51:06;16.10;79.20
15554;DHT22;7878;44.632;10.942;2023-04-01T00:53:34;16.10;79.40
15554;DHT22;7878;44.632;10.942;2023-04-01T00:56:10;16.10;79.30
15554;DHT22;7878;44.632;10.942;2023-04-01T00:58:40;16.00;79.70
15554;DHT22;7878;44.632;10.942;2023-04-01T01:01:08;16.00;79.30
15554;DHT22;7878;44.632;10.942;2023-04-01T01:03:35;16.00;79.60
15554;DHT22;7878;44.632;10.942;2023-04-01T01:08:48;15.90;80.10
15554;DHT22;7878;44.632;10.942;2023-04-01T01:11:23;15.90;79.90
15554;DHT22;7878;44.632;10.942;2023-04-01T01:16:27;15.80;79.70
15554;DHT22;7878;44.632;10.942;2023-04-01T01:27:19;15.70;80.90
15554;DHT22;7878;44.632;10.942;2023-04-01T01:35:45;15.70;80.20
15554;DHT22;7878;44.632;10.942;2023-04-01T01:38:33;15.70;81.60
15554;DHT22;7878;44.632;10.942;2023-04-01T01:41:01;15.70;79.90
15554;DHT22;7878;44.632;10.942;2023-04-01T01:43:40;15.70;79.70
15554;DHT22;7878;44.632;10.942;2023-04-01T01:46:14;15.70;80.00
15554;DHT22;7878;44.632;10.942;2023-04-01T01:48:42;15.70;80.20
15554;DHT22;7878;44.632;10.942;2023-04-01T01:51:09;15.60;80.20
15554;DHT22;7878;44.632;10.942;2023-04-01T01:53:35;15.60;79.80
15554;DHT22;7878;44.632;10.942;2023-04-01T01:56:01;15.60;80.20
15554;DHT22;7878;44.632;10.942;2023-04-01T01:58:30;15.60;79.80
15554;DHT22;7878;44.632;10.942;2023-04-01T02:01:03;15.50;79.90
15554;DHT22;7878;44.632;10.942;2023-04-01T02:03:34;15.40;80.50
15554;DHT22;7878;44.632;10.942;2023-04-01T02:06:04;15.40;80.00
15554;DHT22;7878;44.632;10.942;2023-04-01T02:08:36;15.50;79.80
15554;DHT22;7878;44.632;10.942;2023-04-01T02:11:10;15.50;80.20
15554;DHT22;7878;44.632;10.942;2023-04-01T02:14:35;15.40;80.50
15554;DHT22;7878;44.632;10.942;2023-04-01T02:17:07;15.40;82.20
15554;DHT22;7878;44.632;10.942;2023-04-01T02:19:43;15.40;81.30
15554;DHT22;7878;44.632;10.942;2023-04-01T02:22:14;15.40;80.50
15554;DHT22;7878;44.632;10.942;2023-04-01T02:24:42;15.30;80.40
15554;DHT22;7878;44.632;10.942;2023-04-01T02:27:10;15.30;80.10
15554;DHT22;7878;44.632;10.942;2023-04-01T02:29:35;15.30;80.20
15554;DHT22;7878;44.632;10.942;2023-04-01T02:32:02;15.20;79.80
15554;DHT22;7878;44.632;10.942;2023-04-01T02:34:28;15.20;80.20
15554;DHT22;7878;44.632;10.942;2023-04-01T02:36:55;15.10;80.20
15554;DHT22;7878;44.632;10.942;2023-04-01T02:39:22;15.10;80.00
15554;DHT22;7878;44.632;10.942;2023-04-01T02:41:48;15.10;80.20
15554;DHT22;7878;44.632;10.942;2023-04-01T02:44:15;15.00;80.50
15554;DHT22;7878;44.632;10.942;2023-04-01T02:46:41;14.90;80.50
15554;DHT22;7878;44.632;10.942;2023-04-01T02:49:07;14.90;80.50
15554;DHT22;7878;44.632;10.942;2023-04-01T02:51:33;14.80;80.90
15554;DHT22;7878;44.632;10.942;2023-04-01T02:53:58;14.80;81.10
15554;DHT22;7878;44.632;10.942;2023-04-01T02:56:25;14.80;81.00
15554;DHT22;7878;44.632;10.942;2023-04-01T02:58:51;14.80;80.90
15554;DHT22;7878;44.632;10.942;2023-04-01T03:01:17;14.80;81.00
15554;DHT22;7878;44.632;10.942;2023-04-01T03:03:43;14.80;80.80
15554;DHT22;7878;44.632;10.942;2023-04-01T03:06:11;14.80;81.10
15554;DHT22;7878;44.632;10.942;2023-04-01T03:08:37;14.80;80.90
15554;DHT22;7878;44.632;10.942;2023-04-01T03:11:03;14.70;81.10
15554;DHT22;7878;44.632;10.942;2023-04-01T03:13:29;14.70;80.70
15554;DHT22;7878;44.632;10.942;2023-04-01T03:15:55;14.60;80.80
15554;DHT22;7878;44.632;10.942;2023-04-01T03:18:20;14.50;81.00
15554;DHT22;7878;44.632;10.942;2023-04-01T03:20:47;14.50;80.90
15554;DHT22;7878;44.632;10.942;2023-04-01T03:23:13;14.40;81.00
15554;DHT22;7878;44.632;10.942;2023-04-01T03:25:38;14.40;81.50
15554;DHT22;7878;44.632;10.942;2023-04-01T03:28:04;14.30;81.90
15554;DHT22;7878;44.632;10.942;2023-04-01T03:30:30;14.30;81.80
15554;DHT22;7878;44.632;10.942;2023-04-01T03:32:57;14.30;82.00
15554;DHT22;7878;44.632;10.942;2023-04-01T03:35:23;14.30;81.60
15554;DHT22;7878;44.632;10.942;2023-04-01T03:37:51;14.30;81.90
15554;DHT22;7878;44.632;10.942;2023-04-01T03:40:17;14.30;81.50
15554;DHT22;7878;44.632;10.942;2023-04-01T03:42:43;14.30;81.40
15554;DHT22;7878;44.632;10.942;2023-04-01T03:45:09;14.40;81.50
15554;DHT22;7878;44.632;10.942;2023-04-01T03:47:35;14.40;81.60
15554;DHT22;7878;44.632;10.942;2023-04-01T03:50:01;14.30;81.60
15554;DHT22;7878;44.632;10.942;2023-04-01T03:52:27;14.20;81.70
15554;DHT22;7878;44.632;10.942;2023-04-01T03:54:53;14.20;81.60
15554;DHT22;7878;44.632;10.942;2023-04-01T03:57:18;14.20;81.50
15554;DHT22;7878;44.632;10.942;2023-04-01T03:59:44;14.20;81.60
15554;DHT22;7878;44.632;10.942;2023-04-01T04:02:10;14.20;81.60
15554;DHT22;7878;44.632;10.942;2023-04-01T04:04:35;14.20;81.40
15554;DHT22;7878;44.632;10.942;2023-04-01T04:07:01;14.20;81.60
15554;DHT22;7878;44.632;10.942;2023-04-01T04:09:27;14.20;81.30
15554;DHT22;7878;44.632;10.942;2023-04-01T04:11:53;14.20;81.60
15554;DHT22;7878;44.632;10.942;2023-04-01T04:14:18;14.10;81.20
15554;DHT22;7878;44.632;10.942;2023-04-01T04:16:44;14.10;81.20
15554;DHT22;7878;44.632;10.942;2023-04-01T04:19:10;14.00;81.20
15554;DHT22;7878;44.632;10.942;2023-04-01T04:21:35;13.90;81.40
15554;DHT22;7878;44.632;10.942;2023-04-01T04:24:02;13.80;81.20
15554;DHT22;7878;44.632;10.942;2023-04-01T04:26:28;13.80;81.20
15554;DHT22;7878;44.632;10.942;2023-04-01T04:28:54;13.80;81.20
15554;DHT22;7878;44.632;10.942;2023-04-01T04:31:22;13.70;81.50
15554;DHT22;7878;44.632;10.942;2023-04-01T04:33:48;13.70;81.50
15554;DHT22;7878;44.632;10.942;2023-04-01T04:36:14;13.70;81.90
15554;DHT22;7878;44.632;10.942;2023-04-01T04:38:40;13.70;81.80
15554;DHT22;7878;44.632;10.942;2023-04-01T04:41:10;13.70;81.70
15554;DHT22;7878;44.632;10.942;2023-04-01T04:43:37;13.60;81.90
15554;DHT22;7878;44.632;10.942;2023-04-01T04:46:10;13.60;81.90
15554;DHT22;7878;44.632;10.942;2023-04-01T04:48:36;13.60;82.20
15554;DHT22;7878;44.632;10.942;2023-04-01T04:51:02;13.60;82.00
15554;DHT22;7878;44.632;10.942;2023-04-01T04:53:29;13.60;81.80
15554;DHT22;7878;44.632;10.942;2023-04-01T04:55:54;13.60;81.70
15554;DHT22;7878;44.632;10.942;2023-04-01T04:58:20;13.60;81.30
15554;DHT22;7878;44.632;10.942;2023-04-01T05:00:46;13.60;80.90
15554;DHT22;7878;44.632;10.942;2023-04-01T05:03:13;13.60;80.50
15554;DHT22;7878;44.632;10.942;2023-04-01T05:05:39;13.60;80.50
15554;DHT22;7878;44.632;10.942;2023-04-01T05:08:05;13.60;81.10
15554;DHT22;7878;44.632;10.942;2023-04-01T05:10:31;13.60;81.10
15554;DHT22;7878;44.632;10.942;2023-04-01T05:12:57;13.60;81.10
15554;DHT22;7878;44.632;10.942;2023-04-01T05:15:23;13.60;80.50
15554;DHT22;7878;44.632;10.942;2023-04-01T05:17:48;13.60;80.40
15554;DHT22;7878;44.632;10.942;2023-04-01T05:20:15;13.50;80.20
15554;DHT22;7878;44.632;10.942;2023-04-01T05:22:41;13.50;80.30
15554;DHT22;7878;44.632;10.942;2023-04-01T05:25:07;13.50;80.70
15554;DHT22;7878;44.632;10.942;2023-04-01T05:27:32;13.40;80.60
15554;DHT22;7878;44.632;10.942;2023-04-01T05:29:58;13.40;81.10
15554;DHT22;7878;44.632;10.942;2023-04-01T05:32:24;13.40;81.10
15554;DHT22;7878;44.632;10.942;2023-04-01T05:34:51;13.40;81.10
15554;DHT22;7878;44.632;10.942;2023-04-01T05:37:17;13.40;81.40
15554;DHT22;7878;44.632;10.942;2023-04-01T05:39:43;13.40;81.10
15554;DHT22;7878;44.632;10.942;2023-04-01T05:42:08;13.50;81.10
15554;DHT22;7878;44.632;10.942;2023-04-01T05:44:35;13.50;80.90
15554;DHT22;7878;44.632;10.942;2023-04-01T05:47:01;13.40;80.50
15554;DHT22;7878;44.632;10.942;2023-04-01T05:49:27;13.40;80.70
15554;DHT22;7878;44.632;10.942;2023-04-01T05:51:53;13.40;80.30
15554;DHT22;7878;44.632;10.942;2023-04-01T05:54:20;13.50;80.20
15554;DHT22;7878;44.632;10.942;2023-04-01T05:56:46;13.50;79.80
15554;DHT22;7878;44.632;10.942;2023-04-01T05:59:12;13.50;79.70
15554;DHT22;7878;44.632;10.942;2023-04-01T06:01:39;13.50;79.50
15554;DHT22;7878;44.632;10.942;2023-04-01T06:04:04;13.50;79.40
15554;DHT22;7878;44.632;10.942;2023-04-01T06:06:31;13.50;79.00
15554;DHT22;7878;44.632;10.942;2023-04-01T06:09:07;13.70;78.90
15554;DHT22;7878;44.632;10.942;2023-04-01T06:11:46;13.70;78.60
15554;DHT22;7878;44.632;10.942;2023-04-01T06:14:26;13.80;78.40
15554;DHT22;7878;44.632;10.942;2023-04-01T06:30:44;14.00;77.60
15554;DHT22;7878;44.632;10.942;2023-04-01T06:39:19;14.10;78.30
15554;DHT22;7878;44.632;10.942;2023-04-01T06:55:04;14.30;79.30
15554;DHT22;7878;44.632;10.942;2023-04-01T06:57:40;14.50;79.30
15554;DHT22;7878;44.632;10.942;2023-04-01T07:00:16;14.90;79.30
15554;DHT22;7878;44.632;10.942;2023-04-01T07:03:05;15.40;79.20
15554;DHT22;7878;44.632;10.942;2023-04-01T07:05:33;16.20;79.10
15554;DHT22;7878;44.632;10.942;2023-04-01T07:08:03;16.90;77.60
15554;DHT22;7878;44.632;10.942;2023-04-01T07:10:47;17.70;76.90
15554;DHT22;7878;44.632;10.942;2023-04-01T07:18:40;19.90;74.10
15554;DHT22;7878;44.632;10.942;2023-04-01T07:21:14;20.30;72.80
15554;DHT22;7878;44.632;10.942;2023-04-01T07:23:44;20.50;72.70
15554;DHT22;7878;44.632;10.942;2023-04-01T07:26:22;20.70;72.30
15554;DHT22;7878;44.632;10.942;2023-04-01T07:28:51;20.90;70.60
15554;DHT22;7878;44.632;10.942;2023-04-01T07:31:34;21.00;72.20
15554;DHT22;7878;44.632;10.942;2023-04-01T07:34:28;21.00;70.60
15554;DHT22;7878;44.632;10.942;2023-04-01T07:40:01;20.50;70.20
15554;DHT22;7878;44.632;10.942;2023-04-01T07:51:10;19.60;71.20
15554;DHT22;7878;44.632;10.942;2023-04-01T07:54:12;19.50;70.90
15554;DHT22;7878;44.632;10.942;2023-04-01T07:56:50;19.40;69.50
15554;DHT22;7878;44.632;10.942;2023-04-01T07:59:23;19.40;70.60
15554;DHT22;7878;44.632;10.942;2023-04-01T08:07:18;19.50;69.20
15554;DHT22;7878;44.632;10.942;2023-04-01T08:10:10;19.40;70.50
15554;DHT22;7878;44.632;10.942;2023-04-01T08:13:07;19.40;69.90
15554;DHT22;7878;44.632;10.942;2023-04-01T08:15:45;19.30;68.30
15554;DHT22;7878;44.632;10.942;2023-04-01T08:21:01;19.40;69.50
15554;DHT22;7878;44.632;10.942;2023-04-01T08:23:40;19.40;68.70
15554;DHT22;7878;44.632;10.942;2023-04-01T08:26:16;19.40;68.50
15554;DHT22;7878;44.632;10.942;2023-04-01T08:29:11;19.40;68.70
15554;DHT22;7878;44.632;10.942;2023-04-01T08:32:03;19.40;67.10
15554;DHT22;7878;44.632;10.942;2023-04-01T08:34:36;19.40;67.00
15554;DHT22;7878;44.632;10.942;2023-04-01T08:37:15;19.40;68.60
15554;DHT22;7878;44.632;10.942;2023-04-01T08:39:48;19.30;67.50
15554;DHT22;7878;44.632;10.942;2023-04-01T08:56:17;19.60;68.40
15554;DHT22;7878;44.632;10.942;2023-04-01T09:23:25;21.70;62.60
15554;DHT22;7878;44.632;10.942;2023-04-01T09:26:34;21.60;64.80
15554;DHT22;7878;44.632;10.942;2023-04-01T09:32:25;21.60;62.30
15554;DHT22;7878;44.632;10.942;2023-04-01T09:48:47;21.50;63.00
15554;DHT22;7878;44.632;10.942;2023-04-01T10:53:36;25.60;51.80
15554;DHT22;7878;44.632;10.942;2023-04-01T11:40:20;35.30;41.50
15554;DHT22;7878;44.632;10.942;2023-04-01T11:48:19;38.30;42.20
15554;DHT22;7878;44.632;10.942;2023-04-01T12:02:07;29.80;48.00
15554;DHT22;7878;44.632;10.942;2023-04-01T12:21:25;25.90;48.20
15554;DHT22;7878;44.632;10.942;2023-04-01T12:29:51;25.50;46.70
15554;DHT22;7878;44.632;10.942;2023-04-01T12:40:51;24.90;49.50
15554;DHT22;7878;44.632;10.942;2023-04-01T13:00:29;24.40;50.00
15554;DHT22;7878;44.632;10.942;2023-04-01T13:06:00;24.20;43.20
15554;DHT22;7878;44.632;10.942;2023-04-01T13:11:51;24.00;44.10
15554;DHT22;7878;44.632;10.942;2023-04-01T13:15:05;24.00;44.20
15554;DHT22;7878;44.632;10.942;2023-04-01T13:28:01;23.80;43.50
15554;DHT22;7878;44.632;10.942;2023-04-01T13:34:02;23.80;40.90
15554;DHT22;7878;44.632;10.942;2023-04-01T13:39:58;23.90;46.10
15554;DHT22;7878;44.632;10.942;2023-04-01T13:42:40;23.90;40.10
15554;DHT22;7878;44.632;10.942;2023-04-01T13:45:16;23.90;43.40
15554;DHT22;7878;44.632;10.942;2023-04-01T13:58:44;23.90;44.20
15554;DHT22;7878;44.632;10.942;2023-04-01T14:01:23;23.90;46.20
15554;DHT22;7878;44.632;10.942;2023-04-01T14:04:13;23.90;41.40
15554;DHT22;7878;44.632;10.942;2023-04-01T14:15:19;23.80;44.70
15554;DHT22;7878;44.632;10.942;2023-04-01T14:17:57;23.80;39.90
15554;DHT22;7878;44.632;10.942;2023-04-01T14:20:53;23.70;42.70
15554;DHT22;7878;44.632;10.942;2023-04-01T14:34:34;23.60;41.50
15554;DHT22;7878;44.632;10.942;2023-04-01T14:50:52;23.40;43.20
15554;DHT22;7878;44.632;10.942;2023-04-01T14:53:35;23.30;45.10
15554;DHT22;7878;44.632;10.942;2023-04-01T14:56:04;23.40;40.50
15554;DHT22;7878;44.632;10.942;2023-04-01T14:58:47;23.30;45.50
15554;DHT22;7878;44.632;10.942;2023-04-01T15:07:21;23.30;42.40
15554;DHT22;7878;44.632;10.942;2023-04-01T15:19:10;23.20;44.20
15554;DHT22;7878;44.632;10.942;2023-04-01T15:40:22;23.10;44.60
15554;DHT22;7878;44.632;10.942;2023-04-01T15:43:03;23.10;41.20
15554;DHT22;7878;44.632;10.942;2023-04-01T16:04:55;22.70;44.10
15554;DHT22;7878;44.632;10.942;2023-04-01T16:10:27;22.70;44.40
15554;DHT22;7878;44.632;10.942;2023-04-01T16:15:37;22.70;45.70
15554;DHT22;7878;44.632;10.942;2023-04-01T16:18:30;22.70;45.50
15554;DHT22;7878;44.632;10.942;2023-04-01T16:27:00;22.60;43.10
15554;DHT22;7878;44.632;10.942;2023-04-01T16:40:50;22.60;44.90
15554;DHT22;7878;44.632;10.942;2023-04-01T16:46:32;22.60;44.00
15554;DHT22;7878;44.632;10.942;2023-04-01T16:49:03;22.50;42.80
15554;DHT22;7878;44.632;10.942;2023-04-01T16:52:12;22.50;45.10
15554;DHT22;7878;44.632;10.942;2023-04-01T16:54:56;22.40;40.90
15554;DHT22;7878;44.632;10.942;2023-04-01T16:57:35;22.30;42.20
15554;DHT22;7878;44.632;10.942;2023-04-01T17:05:49;22.10;44.90
15554;DHT22;7878;44.632;10.942;2023-04-01T17:11:19;22.00;44.00
15554;DHT22;7878;44.632;10.942;2023-04-01T17:22:16;21.80;44.20
15554;DHT22;7878;44.632;10.942;2023-04-01T17:24:56;21.80;43.20
15554;DHT22;7878;44.632;10.942;2023-04-01T17:41:31;21.40;42.80
15554;DHT22;7878;44.632;10.942;2023-04-01T17:52:44;21.10;43.10
15554;DHT22;7878;44.632;10.942;2023-04-01T17:58:00;21.00;44.40
15554;DHT22;7878;44.632;10.942;2023-04-01T18:01:02;20.90;46.00
15554;DHT22;7878;44.632;10.942;2023-04-01T18:03:54;20.90;45.10
15554;DHT22;7878;44.632;10.942;2023-04-01T18:09:00;20.60;46.70
15554;DHT22;7878;44.632;10.942;2023-04-01T18:11:36;20.50;48.20
15554;DHT22;7878;44.632;10.942;2023-04-01T18:17:21;20.20;48.70
15554;DHT22;7878;44.632;10.942;2023-04-01T18:23:14;19.90;49.60
15554;DHT22;7878;44.632;10.942;2023-04-01T18:25:22;19.70;49.80
15554;DHT22;7878;44.632;10.942;2023-04-01T18:28:35;19.60;50.40
15554;DHT22;7878;44.632;10.942;2023-04-01T18:36:33;19.20;51.10
15554;DHT22;7878;44.632;10.942;2023-04-01T18:39:13;19.20;51.20
15554;DHT22;7878;44.632;10.942;2023-04-01T18:41:55;19.20;51.40
15554;DHT22;7878;44.632;10.942;2023-04-01T18:48:11;19.00;51.80
15554;DHT22;7878;44.632;10.942;2023-04-01T18:50:23;18.90;52.00
15554;DHT22;7878;44.632;10.942;2023-04-01T18:53:20;18.80;52.10
15554;DHT22;7878;44.632;10.942;2023-04-01T18:55:56;18.80;52.20
15554;DHT22;7878;44.632;10.942;2023-04-01T19:01:39;18.70;52.40
15554;DHT22;7878;44.632;10.942;2023-04-01T19:07:39;18.60;52.80
15554;DHT22;7878;44.632;10.942;2023-04-01T19:18:47;18.50;52.90
15554;DHT22;7878;44.632;10.942;2023-04-01T19:26:40;18.50;53.00
15554;DHT22;7878;44.632;10.942;2023-04-01T19:37:41;18.40;53.10
15554;DHT22;7878;44.632;10.942;2023-04-01T19:40:42;18.40;53.10
15554;DHT22;7878;44.632;10.942;2023-04-01T19:51:16;18.30;53.20
15554;DHT22;7878;44.632;10.942;2023-04-01T20:01:30;18.20;53.20
15554;DHT22;7878;44.632;10.942;2023-04-01T20:04:10;18.20;53.30
15554;DHT22;7878;44.632;10.942;2023-04-01T20:06:46;18.20;53.30
15554;DHT22;7878;44.632;10.942;2023-04-01T20:15:27;18.20;53.40
15554;DHT22;7878;44.632;10.942;2023-04-01T20:17:56;18.20;53.50
15554;DHT22;7878;44.632;10.942;2023-04-01T20:20:28;18.20;53.50
15554;DHT22;7878;44.632;10.942;2023-04-01T20:28:14;18.10;53.70
15554;DHT22;7878;44.632;10.942;2023-04-01T20:45:23;17.90;54.40
15554;DHT22;7878;44.632;10.942;2023-04-01T20:56:07;17.80;54.30
15554;DHT22;7878;44.632;10.942;2023-04-01T21:01:44;17.80;54.60
15554;DHT22;7878;44.632;10.942;2023-04-01T21:04:41;17.80;54.40
15554;DHT22;7878;44.632;10.942;2023-04-01T21:09:49;17.80;54.40
15554;DHT22;7878;44.632;10.942;2023-04-01T21:12:27;17.70;54.90
15554;DHT22;7878;44.632;10.942;2023-04-01T21:36:42;17.50;54.10
15554;DHT22;7878;44.632;10.942;2023-04-01T21:47:20;17.60;54.40
15554;DHT22;7878;44.632;10.942;2023-04-01T22:01:45;17.50;54.70
15554;DHT22;7878;44.632;10.942;2023-04-01T22:04:28;17.40;54.50
15554;DHT22;7878;44.632;10.942;2023-04-01T22:14:49;17.30;54.50
15554;DHT22;7878;44.632;10.942;2023-04-01T22:17:31;17.40;54.70
15554;DHT22;7878;44.632;10.942;2023-04-01T22:20:19;17.40;54.20
15554;DHT22;7878;44.632;10.942;2023-04-01T22:31:00;17.40;54.80
15554;DHT22;7878;44.632;10.942;2023-04-01T22:33:54;17.40;54.90
15554;DHT22;7878;44.632;10.942;2023-04-01T22:44:33;17.40;54.80
15554;DHT22;7878;44.632;10.942;2023-04-01T22:47:28;17.40;55.10
15554;DHT22;7878;44.632;10.942;2023-04-01T22:55:42;17.40;54.80
15554;DHT22;7878;44.632;10.942;2023-04-01T22:58:14;17.40;54.40
15554;DHT22;7878;44.632;10.942;2023-04-01T23:00:48;17.50;54.60
15554;DHT22;7878;44.632;10.942;2023-04-01T23:03:24;17.50;54.60
15554;DHT22;7878;44.632;10.942;2023-04-01T23:05:59;17.50;54.60
15554;DHT22;7878;44.632;10.942;2023-04-01T23:08:51;17.50;54.60
15554;DHT22;7878;44.632;10.942;2023-04-01T23:11:27;17.50;55.20
15554;DHT22;7878;44.632;10.942;2023-04-01T23:14:06;17.50;54.70
15554;DHT22;7878;44.632;10.942;2023-04-01T23:16:41;17.50;54.60
15554;DHT22;7878;44.632;10.942;2023-04-01T23:19:19;17.50;54.50
15554;DHT22;7878;44.632;10.942;2023-04-01T23:24:33;17.40;54.60
15554;DHT22;7878;44.632;10.942;2023-04-01T23:29:37;17.40;54.80
15554;DHT22;7878;44.632;10.942;2023-04-01T23:32:34;17.40;55.00
15554;DHT22;7878;44.632;10.942;2023-04-01T23:35:00;17.40;55.50
15554;DHT22;7878;44.632;10.942;2023-04-01T23:37:26;17.30;55.10
15554;DHT22;7878;44.632;10.942;2023-04-01T23:39:54;17.30;55.00
15554;DHT22;7878;44.632;10.942;2023-04-01T23:42:32;17.30;55.20
15554;DHT22;7878;44.632;10.942;2023-04-01T23:45:11;17.30;55.30
15554;DHT22;7878;44.632;10.942;2023-04-01T23:47:39;17.30;55.20
15554;DHT22;7878;44.632;10.942;2023-04-01T23:50:21;17.20;55.00
15554;DHT22;7878;44.632;10.942;2023-04-01T23:52:53;17.20;55.20
15554;DHT22;7878;44.632;10.942;2023-04-01T23:55:29;17.10;55.10
